sensor_id;sensor_type;location;lat;lon;timestamp;P1;durP1;ratioP1;P2;durP2;ratioP2
15633;SDS011;14654;48.898;8.308;2023-05-29T00:02:03;7.67;;;6.20;;
15633;SDS011;14654;48.898;8.308;2023-05-29T00:04:28;6.47;;;5.57;;
15633;SDS011;14654;48.898;8.308;2023-05-29T00:06:53;6.70;;;6.00;;
15633;SDS011;14654;48.898;8.308;2023-05-29T00:09:19;7.57;;;5.80;;
15633;SDS011;14654;48.898;8.308;2023-05-29T00:11:44;6.70;;;5.77;;
15633;SDS011;14654;48.898;8.308;2023-05-29T00:14:12;6.10;;;5.37;;
15633;SDS011;14654;48.898;8.308;2023-05-29T00:16:39;7.37;;;5.90;;
15633;SDS011;14654;48.898;8.308;2023-05-29T00:19:04;6.70;;;5.20;;
15633;SDS011;14654;48.898;8.308;2023-05-29T00:21:30;5.83;;;5.23;;
15633;SDS011;14654;48.898;8.308;2023-05-29T00:23:55;6.90;;;5.17;;
15633;SDS011;14654;48.898;8.308;2023-05-29T00:26:20;6.20;;;5.60;;
15633;SDS011;14654;48.898;8.308;2023-05-29T00:28:46;6.17;;;5.57;;
15633;SDS011;14654;48.898;8.308;2023-05-29T00:31:11;6.83;;;6.17;;
15633;SDS011;14654;48.898;8.308;2023-05-29T00:33:36;8.83;;;5.73;;
15633;SDS011;14654;48.898;8.308;2023-05-29T00:36:02;7.10;;;5.73;;
15633;SDS011;14654;48.898;8.308;2023-05-29T00:38:27;9.83;;;5.43;;
15633;SDS011;14654;48.898;8.308;2023-05-29T00:40:52;6.90;;;5.57;;
15633;SDS011;14654;48.898;8.308;2023-05-29T00:43:18;6.13;;;5.47;;
15633;SDS011;14654;48.898;8.308;2023-05-29T00:45:43;8.37;;;5.07;;
15633;SDS011;14654;48.898;8.308;2023-05-29T00:48:09;7.33;;;5.20;;
15633;SDS011;14654;48.898;8.308;2023-05-29T00:50:34;6.53;;;4.93;;
15633;SDS011;14654;48.898;8.308;2023-05-29T00:53:00;5.43;;;4.50;;
15633;SDS011;14654;48.898;8.308;2023-05-29T00:55:27;8.97;;;5.20;;
15633;SDS011;14654;48.898;8.308;2023-05-29T00:57:53;6.63;;;5.30;;
15633;SDS011;14654;48.898;8.308;2023-05-29T01:00:20;7.33;;;5.23;;
15633;SDS011;14654;48.898;8.308;2023-05-29T01:02:46;5.97;;;4.70;;
15633;SDS011;14654;48.898;8.308;2023-05-29T01:05:12;7.57;;;4.97;;
15633;SDS011;14654;48.898;8.308;2023-05-29T01:07:38;6.07;;;5.17;;
15633;SDS011;14654;48.898;8.308;2023-05-29T01:10:04;6.30;;;5.13;;
15633;SDS011;14654;48.898;8.308;2023-05-29T01:12:38;7.17;;;5.33;;
15633;SDS011;14654;48.898;8.308;2023-05-29T01:23:01;5.80;;;4.83;;
15633;SDS011;14654;48.898;8.308;2023-05-29T01:25:51;8.17;;;5.10;;
15633;SDS011;14654;48.898;8.308;2023-05-29T01:28:21;7.10;;;5.10;;
15633;SDS011;14654;48.898;8.308;2023-05-29T01:30:52;5.80;;;5.20;;
15633;SDS011;14654;48.898;8.308;2023-05-29T01:33:20;7.80;;;5.13;;
15633;SDS011;14654;48.898;8.308;2023-05-29T01:35:45;5.70;;;4.97;;
15633;SDS011;14654;48.898;8.308;2023-05-29T01:38:11;7.83;;;5.00;;
15633;SDS011;14654;48.898;8.308;2023-05-29T01:40:36;5.30;;;4.80;;
15633;SDS011;14654;48.898;8.308;2023-05-29T01:43:02;5.87;;;5.27;;
15633;SDS011;14654;48.898;8.308;2023-05-29T01:45:28;6.40;;;4.67;;
15633;SDS011;14654;48.898;8.308;2023-05-29T01:47:54;6.00;;;4.67;;
15633;SDS011;14654;48.898;8.308;2023-05-29T01:50:20;7.50;;;5.33;;
15633;SDS011;14654;48.898;8.308;2023-05-29T01:52:49;5.60;;;4.70;;
15633;SDS011;14654;48.898;8.308;2023-05-29T01:55:14;5.17;;;4.67;;
15633;SDS011;14654;48.898;8.308;2023-05-29T01:57:40;6.67;;;5.00;;
15633;SDS011;14654;48.898;8.308;2023-05-29T02:00:07;5.97;;;4.80;;
15633;SDS011;14654;48.898;8.308;2023-05-29T02:02:40;6.20;;;4.67;;
15633;SDS011;14654;48.898;8.308;2023-05-29T02:05:06;9.13;;;5.47;;
15633;SDS011;14654;48.898;8.308;2023-05-29T02:07:33;5.83;;;5.23;;
15633;SDS011;14654;48.898;8.308;2023-05-29T02:09:59;6.30;;;4.87;;
15633;SDS011;14654;48.898;8.308;2023-05-29T02:12:25;6.83;;;4.63;;
15633;SDS011;14654;48.898;8.308;2023-05-29T02:14:50;5.87;;;4.57;;
15633;SDS011;14654;48.898;8.308;2023-05-29T02:17:16;6.03;;;4.53;;
15633;SDS011;14654;48.898;8.308;2023-05-29T02:19:41;6.83;;;4.87;;
15633;SDS011;14654;48.898;8.308;2023-05-29T02:22:07;6.73;;;4.90;;
15633;SDS011;14654;48.898;8.308;2023-05-29T02:24:32;5.73;;;4.87;;
15633;SDS011;14654;48.898;8.308;2023-05-29T02:26:58;5.40;;;4.70;;
15633;SDS011;14654;48.898;8.308;2023-05-29T02:29:23;5.27;;;4.70;;
15633;SDS011;14654;48.898;8.308;2023-05-29T02:31:48;5.53;;;4.67;;
15633;SDS011;14654;48.898;8.308;2023-05-29T02:34:14;5.67;;;4.30;;
15633;SDS011;14654;48.898;8.308;2023-05-29T02:36:39;5.33;;;4.77;;
15633;SDS011;14654;48.898;8.308;2023-05-29T02:39:05;5.17;;;4.40;;
15633;SDS011;14654;48.898;8.308;2023-05-29T02:41:30;7.17;;;5.00;;
15633;SDS011;14654;48.898;8.308;2023-05-29T02:43:56;7.90;;;5.07;;
15633;SDS011;14654;48.898;8.308;2023-05-29T02:46:21;5.30;;;4.77;;
15633;SDS011;14654;48.898;8.308;2023-05-29T02:48:47;7.07;;;5.20;;
15633;SDS011;14654;48.898;8.308;2023-05-29T02:51:13;6.20;;;4.67;;
15633;SDS011;14654;48.898;8.308;2023-05-29T02:53:38;5.50;;;4.90;;
15633;SDS011;14654;48.898;8.308;2023-05-29T02:56:03;5.63;;;4.67;;
15633;SDS011;14654;48.898;8.308;2023-05-29T02:58:29;6.43;;;4.70;;
15633;SDS011;14654;48.898;8.308;2023-05-29T03:00:55;5.73;;;4.40;;
15633;SDS011;14654;48.898;8.308;2023-05-29T03:03:20;5.90;;;4.87;;
15633;SDS011;14654;48.898;8.308;2023-05-29T03:05:45;6.37;;;4.70;;
15633;SDS011;14654;48.898;8.308;2023-05-29T03:08:11;6.53;;;4.73;;
15633;SDS011;14654;48.898;8.308;2023-05-29T03:10:37;5.13;;;4.63;;
15633;SDS011;14654;48.898;8.308;2023-05-29T03:13:03;5.17;;;4.30;;
15633;SDS011;14654;48.898;8.308;2023-05-29T03:15:28;7.43;;;5.10;;
15633;SDS011;14654;48.898;8.308;2023-05-29T03:17:54;6.37;;;4.93;;
15633;SDS011;14654;48.898;8.308;2023-05-29T03:20:19;5.33;;;4.73;;
15633;SDS011;14654;48.898;8.308;2023-05-29T03:22:45;5.17;;;4.63;;
15633;SDS011;14654;48.898;8.308;2023-05-29T03:25:10;5.30;;;4.73;;
15633;SDS011;14654;48.898;8.308;2023-05-29T03:27:36;6.07;;;4.53;;
15633;SDS011;14654;48.898;8.308;2023-05-29T03:30:01;5.50;;;4.37;;
15633;SDS011;14654;48.898;8.308;2023-05-29T03:32:27;5.93;;;4.63;;
15633;SDS011;14654;48.898;8.308;2023-05-29T03:34:53;6.27;;;4.83;;
15633;SDS011;14654;48.898;8.308;2023-05-29T03:37:18;5.50;;;4.80;;
15633;SDS011;14654;48.898;8.308;2023-05-29T03:39:43;5.60;;;5.00;;
15633;SDS011;14654;48.898;8.308;2023-05-29T03:42:09;5.90;;;4.70;;
15633;SDS011;14654;48.898;8.308;2023-05-29T03:44:34;6.27;;;4.53;;
15633;SDS011;14654;48.898;8.308;2023-05-29T03:47:00;6.57;;;4.67;;
15633;SDS011;14654;48.898;8.308;2023-05-29T03:49:25;4.90;;;4.40;;
15633;SDS011;14654;48.898;8.308;2023-05-29T03:51:50;5.40;;;4.53;;
15633;SDS011;14654;48.898;8.308;2023-05-29T03:54:16;7.03;;;5.53;;
15633;SDS011;14654;48.898;8.308;2023-05-29T03:56:41;5.23;;;4.40;;
15633;SDS011;14654;48.898;8.308;2023-05-29T03:59:07;6.77;;;4.70;;
15633;SDS011;14654;48.898;8.308;2023-05-29T04:01:32;6.67;;;5.07;;
15633;SDS011;14654;48.898;8.308;2023-05-29T04:03:58;7.03;;;5.37;;
15633;SDS011;14654;48.898;8.308;2023-05-29T04:06:23;7.13;;;5.07;;
15633;SDS011;14654;48.898;8.308;2023-05-29T04:08:49;5.30;;;4.53;;
15633;SDS011;14654;48.898;8.308;2023-05-29T04:11:15;5.93;;;4.90;;
15633;SDS011;14654;48.898;8.308;2023-05-29T04:13:40;5.20;;;4.70;;
15633;SDS011;14654;48.898;8.308;2023-05-29T04:16:06;5.60;;;5.10;;
15633;SDS011;14654;48.898;8.308;2023-05-29T04:18:31;5.60;;;5.10;;
15633;SDS011;14654;48.898;8.308;2023-05-29T04:20:57;7.47;;;5.07;;
15633;SDS011;14654;48.898;8.308;2023-05-29T04:23:22;6.50;;;4.67;;
15633;SDS011;14654;48.898;8.308;2023-05-29T04:25:48;6.37;;;5.13;;
15633;SDS011;14654;48.898;8.308;2023-05-29T04:28:16;5.63;;;5.07;;
15633;SDS011;14654;48.898;8.308;2023-05-29T04:30:42;6.27;;;4.57;;
15633;SDS011;14654;48.898;8.308;2023-05-29T04:33:07;7.00;;;5.53;;
15633;SDS011;14654;48.898;8.308;2023-05-29T04:35:34;6.03;;;4.70;;
15633;SDS011;14654;48.898;8.308;2023-05-29T04:38:00;5.20;;;4.67;;
15633;SDS011;14654;48.898;8.308;2023-05-29T04:40:25;5.90;;;4.40;;
15633;SDS011;14654;48.898;8.308;2023-05-29T04:42:51;5.93;;;4.60;;
15633;SDS011;14654;48.898;8.308;2023-05-29T04:45:19;5.63;;;4.57;;
15633;SDS011;14654;48.898;8.308;2023-05-29T04:47:47;6.53;;;4.63;;
15633;SDS011;14654;48.898;8.308;2023-05-29T04:50:13;7.20;;;5.20;;
15633;SDS011;14654;48.898;8.308;2023-05-29T04:52:38;6.40;;;4.83;;
15633;SDS011;14654;48.898;8.308;2023-05-29T04:55:04;6.40;;;4.60;;
15633;SDS011;14654;48.898;8.308;2023-05-29T04:57:30;5.83;;;4.60;;
15633;SDS011;14654;48.898;8.308;2023-05-29T04:59:56;7.50;;;5.20;;
15633;SDS011;14654;48.898;8.308;2023-05-29T05:02:21;6.27;;;4.60;;
15633;SDS011;14654;48.898;8.308;2023-05-29T05:04:46;6.00;;;4.73;;
15633;SDS011;14654;48.898;8.308;2023-05-29T05:07:12;6.17;;;5.03;;
15633;SDS011;14654;48.898;8.308;2023-05-29T05:09:38;6.27;;;4.70;;
15633;SDS011;14654;48.898;8.308;2023-05-29T05:12:03;5.40;;;4.60;;
15633;SDS011;14654;48.898;8.308;2023-05-29T05:14:29;6.33;;;4.77;;
15633;SDS011;14654;48.898;8.308;2023-05-29T05:16:54;5.83;;;5.00;;
15633;SDS011;14654;48.898;8.308;2023-05-29T05:19:19;7.73;;;5.00;;
15633;SDS011;14654;48.898;8.308;2023-05-29T05:21:45;4.50;;;4.07;;
15633;SDS011;14654;48.898;8.308;2023-05-29T05:24:10;6.47;;;4.90;;
15633;SDS011;14654;48.898;8.308;2023-05-29T05:26:36;4.90;;;4.40;;
15633;SDS011;14654;48.898;8.308;2023-05-29T05:29:01;5.33;;;4.20;;
15633;SDS011;14654;48.898;8.308;2023-05-29T05:31:26;6.17;;;4.73;;
15633;SDS011;14654;48.898;8.308;2023-05-29T05:33:52;6.60;;;5.03;;
15633;SDS011;14654;48.898;8.308;2023-05-29T05:36:18;4.60;;;4.17;;
15633;SDS011;14654;48.898;8.308;2023-05-29T05:38:43;6.63;;;4.67;;
15633;SDS011;14654;48.898;8.308;2023-05-29T05:41:09;5.23;;;4.70;;
15633;SDS011;14654;48.898;8.308;2023-05-29T05:43:35;6.20;;;4.97;;
15633;SDS011;14654;48.898;8.308;2023-05-29T05:46:00;5.90;;;4.83;;
15633;SDS011;14654;48.898;8.308;2023-05-29T05:48:25;5.33;;;4.50;;
15633;SDS011;14654;48.898;8.308;2023-05-29T05:50:51;5.70;;;4.77;;
15633;SDS011;14654;48.898;8.308;2023-05-29T05:53:16;5.60;;;4.70;;
15633;SDS011;14654;48.898;8.308;2023-05-29T05:55:42;5.10;;;4.60;;
15633;SDS011;14654;48.898;8.308;2023-05-29T05:58:08;7.73;;;5.07;;
15633;SDS011;14654;48.898;8.308;2023-05-29T06:00:33;6.67;;;4.63;;
15633;SDS011;14654;48.898;8.308;2023-05-29T06:02:58;4.90;;;4.33;;
15633;SDS011;14654;48.898;8.308;2023-05-29T06:05:25;5.23;;;4.30;;
15633;SDS011;14654;48.898;8.308;2023-05-29T06:07:50;6.50;;;4.33;;
15633;SDS011;14654;48.898;8.308;2023-05-29T06:10:16;5.90;;;4.80;;
15633;SDS011;14654;48.898;8.308;2023-05-29T06:12:41;5.57;;;4.53;;
15633;SDS011;14654;48.898;8.308;2023-05-29T06:15:06;8.40;;;5.33;;
15633;SDS011;14654;48.898;8.308;2023-05-29T06:17:32;5.93;;;4.53;;
15633;SDS011;14654;48.898;8.308;2023-05-29T06:19:58;5.13;;;4.03;;
15633;SDS011;14654;48.898;8.308;2023-05-29T06:22:23;5.13;;;3.90;;
15633;SDS011;14654;48.898;8.308;2023-05-29T06:24:49;6.50;;;4.50;;
15633;SDS011;14654;48.898;8.308;2023-05-29T06:27:14;6.43;;;4.47;;
15633;SDS011;14654;48.898;8.308;2023-05-29T06:29:39;5.97;;;4.30;;
15633;SDS011;14654;48.898;8.308;2023-05-29T06:32:04;6.50;;;4.07;;
15633;SDS011;14654;48.898;8.308;2023-05-29T06:34:30;5.43;;;3.87;;
15633;SDS011;14654;48.898;8.308;2023-05-29T06:36:55;4.97;;;4.20;;
15633;SDS011;14654;48.898;8.308;2023-05-29T06:39:21;6.17;;;4.10;;
15633;SDS011;14654;48.898;8.308;2023-05-29T06:41:47;5.53;;;4.23;;
15633;SDS011;14654;48.898;8.308;2023-05-29T06:44:12;4.50;;;3.83;;
15633;SDS011;14654;48.898;8.308;2023-05-29T06:46:37;4.50;;;3.80;;
15633;SDS011;14654;48.898;8.308;2023-05-29T06:49:03;8.00;;;4.20;;
15633;SDS011;14654;48.898;8.308;2023-05-29T06:51:28;6.53;;;4.17;;
15633;SDS011;14654;48.898;8.308;2023-05-29T06:53:54;4.00;;;3.60;;
15633;SDS011;14654;48.898;8.308;2023-05-29T06:56:20;5.00;;;3.87;;
15633;SDS011;14654;48.898;8.308;2023-05-29T06:58:46;7.10;;;3.77;;
15633;SDS011;14654;48.898;8.308;2023-05-29T07:01:11;5.87;;;5.00;;
15633;SDS011;14654;48.898;8.308;2023-05-29T07:03:36;6.73;;;4.90;;
15633;SDS011;14654;48.898;8.308;2023-05-29T07:06:02;4.30;;;3.60;;
15633;SDS011;14654;48.898;8.308;2023-05-29T07:08:28;4.20;;;3.63;;
15633;SDS011;14654;48.898;8.308;2023-05-29T07:10:53;4.27;;;3.43;;
15633;SDS011;14654;48.898;8.308;2023-05-29T07:13:19;4.70;;;3.57;;
15633;SDS011;14654;48.898;8.308;2023-05-29T07:15:44;5.23;;;4.00;;
15633;SDS011;14654;48.898;8.308;2023-05-29T07:18:10;5.10;;;3.87;;
15633;SDS011;14654;48.898;8.308;2023-05-29T07:20:36;5.83;;;3.63;;
15633;SDS011;14654;48.898;8.308;2023-05-29T07:23:01;4.37;;;3.70;;
15633;SDS011;14654;48.898;8.308;2023-05-29T07:25:27;5.87;;;4.13;;
15633;SDS011;14654;48.898;8.308;2023-05-29T07:27:53;6.17;;;3.90;;
15633;SDS011;14654;48.898;8.308;2023-05-29T07:30:18;4.03;;;3.50;;
15633;SDS011;14654;48.898;8.308;2023-05-29T07:32:43;4.30;;;3.53;;
15633;SDS011;14654;48.898;8.308;2023-05-29T07:35:09;5.27;;;3.93;;
15633;SDS011;14654;48.898;8.308;2023-05-29T07:37:34;4.97;;;3.57;;
15633;SDS011;14654;48.898;8.308;2023-05-29T07:40:00;4.67;;;3.70;;
15633;SDS011;14654;48.898;8.308;2023-05-29T07:42:25;5.17;;;4.10;;
15633;SDS011;14654;48.898;8.308;2023-05-29T07:44:51;4.43;;;3.90;;
15633;SDS011;14654;48.898;8.308;2023-05-29T07:47:16;6.50;;;4.23;;
15633;SDS011;14654;48.898;8.308;2023-05-29T07:49:41;4.60;;;3.73;;
15633;SDS011;14654;48.898;8.308;2023-05-29T07:52:07;4.40;;;3.60;;
15633;SDS011;14654;48.898;8.308;2023-05-29T07:54:32;6.30;;;4.17;;
15633;SDS011;14654;48.898;8.308;2023-05-29T07:56:58;5.37;;;4.27;;
15633;SDS011;14654;48.898;8.308;2023-05-29T07:59:38;4.90;;;3.93;;
15633;SDS011;14654;48.898;8.308;2023-05-29T08:02:06;4.67;;;3.67;;
15633;SDS011;14654;48.898;8.308;2023-05-29T08:04:31;3.90;;;3.23;;
15633;SDS011;14654;48.898;8.308;2023-05-29T08:06:57;7.23;;;4.27;;
15633;SDS011;14654;48.898;8.308;2023-05-29T08:09:24;6.47;;;4.30;;
15633;SDS011;14654;48.898;8.308;2023-05-29T08:11:49;6.27;;;3.77;;
15633;SDS011;14654;48.898;8.308;2023-05-29T08:14:15;7.03;;;4.50;;
15633;SDS011;14654;48.898;8.308;2023-05-29T08:16:41;4.90;;;3.60;;
15633;SDS011;14654;48.898;8.308;2023-05-29T08:19:06;7.80;;;4.33;;
15633;SDS011;14654;48.898;8.308;2023-05-29T08:21:32;7.13;;;4.30;;
15633;SDS011;14654;48.898;8.308;2023-05-29T08:23:57;4.50;;;4.07;;
15633;SDS011;14654;48.898;8.308;2023-05-29T08:26:23;8.23;;;3.90;;
15633;SDS011;14654;48.898;8.308;2023-05-29T08:28:49;4.83;;;3.83;;
15633;SDS011;14654;48.898;8.308;2023-05-29T08:31:15;5.83;;;4.10;;
15633;SDS011;14654;48.898;8.308;2023-05-29T08:33:40;6.97;;;4.17;;
15633;SDS011;14654;48.898;8.308;2023-05-29T08:36:06;6.03;;;4.07;;
15633;SDS011;14654;48.898;8.308;2023-05-29T08:38:31;6.20;;;4.17;;
15633;SDS011;14654;48.898;8.308;2023-05-29T08:40:57;6.17;;;3.90;;
15633;SDS011;14654;48.898;8.308;2023-05-29T08:43:23;5.77;;;4.73;;
15633;SDS011;14654;48.898;8.308;2023-05-29T08:45:53;4.67;;;4.13;;
15633;SDS011;14654;48.898;8.308;2023-05-29T08:48:22;6.90;;;3.70;;
15633;SDS011;14654;48.898;8.308;2023-05-29T08:50:49;5.60;;;4.20;;
15633;SDS011;14654;48.898;8.308;2023-05-29T08:53:18;6.77;;;4.00;;
15633;SDS011;14654;48.898;8.308;2023-05-29T08:55:44;6.00;;;4.23;;
15633;SDS011;14654;48.898;8.308;2023-05-29T08:58:12;6.07;;;4.13;;
15633;SDS011;14654;48.898;8.308;2023-05-29T09:00:38;6.03;;;4.00;;
15633;SDS011;14654;48.898;8.308;2023-05-29T09:03:05;6.10;;;4.53;;
15633;SDS011;14654;48.898;8.308;2023-05-29T09:05:31;5.40;;;3.67;;
15633;SDS011;14654;48.898;8.308;2023-05-29T09:07:57;5.10;;;4.37;;
15633;SDS011;14654;48.898;8.308;2023-05-29T09:10:23;5.43;;;4.43;;
15633;SDS011;14654;48.898;8.308;2023-05-29T09:12:51;5.97;;;4.17;;
15633;SDS011;14654;48.898;8.308;2023-05-29T09:15:20;5.57;;;4.30;;
15633;SDS011;14654;48.898;8.308;2023-05-29T09:17:52;5.63;;;4.00;;
15633;SDS011;14654;48.898;8.308;2023-05-29T09:20:19;5.57;;;4.27;;
15633;SDS011;14654;48.898;8.308;2023-05-29T09:23:07;4.80;;;4.10;;
15633;SDS011;14654;48.898;8.308;2023-05-29T09:25:38;4.77;;;4.07;;
15633;SDS011;14654;48.898;8.308;2023-05-29T09:28:06;6.03;;;4.03;;
15633;SDS011;14654;48.898;8.308;2023-05-29T09:30:39;6.67;;;4.30;;
15633;SDS011;14654;48.898;8.308;2023-05-29T09:33:07;6.90;;;4.37;;
15633;SDS011;14654;48.898;8.308;2023-05-29T09:35:44;4.50;;;4.07;;
15633;SDS011;14654;48.898;8.308;2023-05-29T09:38:11;5.43;;;4.47;;
15633;SDS011;14654;48.898;8.308;2023-05-29T09:40:38;6.50;;;4.67;;
15633;SDS011;14654;48.898;8.308;2023-05-29T09:43:14;5.40;;;3.90;;
15633;SDS011;14654;48.898;8.308;2023-05-29T09:45:43;6.43;;;4.07;;
15633;SDS011;14654;48.898;8.308;2023-05-29T09:48:22;7.10;;;4.87;;
15633;SDS011;14654;48.898;8.308;2023-05-29T09:50:49;6.63;;;4.40;;
15633;SDS011;14654;48.898;8.308;2023-05-29T09:53:18;5.90;;;4.50;;
15633;SDS011;14654;48.898;8.308;2023-05-29T09:55:45;5.47;;;4.30;;
15633;SDS011;14654;48.898;8.308;2023-05-29T09:58:13;5.23;;;4.47;;
15633;SDS011;14654;48.898;8.308;2023-05-29T10:00:39;5.00;;;4.50;;
15633;SDS011;14654;48.898;8.308;2023-05-29T10:03:06;5.50;;;4.23;;
15633;SDS011;14654;48.898;8.308;2023-05-29T10:05:31;6.17;;;4.43;;
15633;SDS011;14654;48.898;8.308;2023-05-29T10:07:57;6.60;;;4.43;;
15633;SDS011;14654;48.898;8.308;2023-05-29T10:10:24;4.90;;;4.40;;
15633;SDS011;14654;48.898;8.308;2023-05-29T10:12:51;6.13;;;4.93;;
15633;SDS011;14654;48.898;8.308;2023-05-29T10:15:18;6.10;;;4.17;;
15633;SDS011;14654;48.898;8.308;2023-05-29T10:17:59;5.33;;;4.53;;
15633;SDS011;14654;48.898;8.308;2023-05-29T10:20:29;5.30;;;4.30;;
15633;SDS011;14654;48.898;8.308;2023-05-29T10:22:56;9.07;;;4.50;;
15633;SDS011;14654;48.898;8.308;2023-05-29T10:25:25;6.43;;;3.97;;
15633;SDS011;14654;48.898;8.308;2023-05-29T10:27:54;5.47;;;4.37;;
15633;SDS011;14654;48.898;8.308;2023-05-29T10:33:07;5.83;;;4.30;;
15633;SDS011;14654;48.898;8.308;2023-05-29T10:38:13;5.40;;;4.40;;
15633;SDS011;14654;48.898;8.308;2023-05-29T10:40:41;5.20;;;4.43;;
15633;SDS011;14654;48.898;8.308;2023-05-29T10:43:08;5.67;;;4.20;;
15633;SDS011;14654;48.898;8.308;2023-05-29T10:51:05;6.07;;;4.83;;
15633;SDS011;14654;48.898;8.308;2023-05-29T10:53:24;7.10;;;4.50;;
15633;SDS011;14654;48.898;8.308;2023-05-29T10:55:52;6.60;;;4.57;;
15633;SDS011;14654;48.898;8.308;2023-05-29T10:58:18;4.50;;;4.00;;
15633;SDS011;14654;48.898;8.308;2023-05-29T11:00:44;6.07;;;4.53;;
15633;SDS011;14654;48.898;8.308;2023-05-29T11:03:11;5.27;;;4.23;;
15633;SDS011;14654;48.898;8.308;2023-05-29T11:08:45;6.40;;;4.40;;
15633;SDS011;14654;48.898;8.308;2023-05-29T11:11:14;6.20;;;4.53;;
15633;SDS011;14654;48.898;8.308;2023-05-29T11:13:54;7.57;;;4.70;;
15633;SDS011;14654;48.898;8.308;2023-05-29T11:18:55;4.63;;;4.17;;
15633;SDS011;14654;48.898;8.308;2023-05-29T11:24:15;6.73;;;4.60;;
15633;SDS011;14654;48.898;8.308;2023-05-29T11:26:55;4.23;;;3.83;;
15633;SDS011;14654;48.898;8.308;2023-05-29T11:29:27;6.10;;;4.67;;
15633;SDS011;14654;48.898;8.308;2023-05-29T11:32:12;5.70;;;4.73;;
15633;SDS011;14654;48.898;8.308;2023-05-29T11:34:41;5.40;;;4.43;;
15633;SDS011;14654;48.898;8.308;2023-05-29T11:37:09;5.83;;;4.30;;
15633;SDS011;14654;48.898;8.308;2023-05-29T11:39:36;5.63;;;4.40;;
15633;SDS011;14654;48.898;8.308;2023-05-29T11:42:02;7.00;;;4.00;;
15633;SDS011;14654;48.898;8.308;2023-05-29T11:44:28;5.77;;;4.10;;
15633;SDS011;14654;48.898;8.308;2023-05-29T11:47:04;6.27;;;4.20;;
15633;SDS011;14654;48.898;8.308;2023-05-29T11:49:31;5.40;;;4.10;;
15633;SDS011;14654;48.898;8.308;2023-05-29T11:52:14;6.60;;;4.10;;
15633;SDS011;14654;48.898;8.308;2023-05-29T11:54:40;4.50;;;3.97;;
15633;SDS011;14654;48.898;8.308;2023-05-29T11:57:17;5.53;;;4.23;;
15633;SDS011;14654;48.898;8.308;2023-05-29T11:59:45;4.90;;;4.30;;
15633;SDS011;14654;48.898;8.308;2023-05-29T12:02:11;7.90;;;3.90;;
15633;SDS011;14654;48.898;8.308;2023-05-29T12:04:37;4.60;;;4.07;;
15633;SDS011;14654;48.898;8.308;2023-05-29T12:07:16;9.33;;;4.40;;
15633;SDS011;14654;48.898;8.308;2023-05-29T12:09:42;5.50;;;3.60;;
15633;SDS011;14654;48.898;8.308;2023-05-29T12:12:08;5.60;;;3.90;;
15633;SDS011;14654;48.898;8.308;2023-05-29T12:14:33;5.50;;;3.87;;
15633;SDS011;14654;48.898;8.308;2023-05-29T12:16:58;5.43;;;3.87;;
15633;SDS011;14654;48.898;8.308;2023-05-29T12:19:24;4.80;;;3.50;;
15633;SDS011;14654;48.898;8.308;2023-05-29T12:21:49;5.40;;;3.87;;
15633;SDS011;14654;48.898;8.308;2023-05-29T12:24:15;8.37;;;3.63;;
15633;SDS011;14654;48.898;8.308;2023-05-29T12:26:43;6.67;;;3.97;;
15633;SDS011;14654;48.898;8.308;2023-05-29T12:29:09;8.63;;;4.03;;
15633;SDS011;14654;48.898;8.308;2023-05-29T12:31:34;12.30;;;4.80;;
15633;SDS011;14654;48.898;8.308;2023-05-29T12:34:00;5.90;;;3.87;;
15633;SDS011;14654;48.898;8.308;2023-05-29T12:36:39;5.20;;;3.80;;
15633;SDS011;14654;48.898;8.308;2023-05-29T12:39:06;3.60;;;3.30;;
15633;SDS011;14654;48.898;8.308;2023-05-29T12:41:33;5.53;;;3.60;;
15633;SDS011;14654;48.898;8.308;2023-05-29T12:44:01;10.77;;;4.07;;
15633;SDS011;14654;48.898;8.308;2023-05-29T12:46:34;6.50;;;4.30;;
15633;SDS011;14654;48.898;8.308;2023-05-29T12:49:12;5.23;;;3.90;;
15633;SDS011;14654;48.898;8.308;2023-05-29T12:51:39;7.70;;;4.10;;
15633;SDS011;14654;48.898;8.308;2023-05-29T12:54:13;4.20;;;3.60;;
15633;SDS011;14654;48.898;8.308;2023-05-29T12:56:39;5.90;;;3.80;;
15633;SDS011;14654;48.898;8.308;2023-05-29T12:59:06;6.00;;;3.70;;
15633;SDS011;14654;48.898;8.308;2023-05-29T13:01:36;4.50;;;3.70;;
15633;SDS011;14654;48.898;8.308;2023-05-29T13:04:03;3.93;;;3.53;;
15633;SDS011;14654;48.898;8.308;2023-05-29T13:06:31;8.70;;;3.83;;
15633;SDS011;14654;48.898;8.308;2023-05-29T13:08:56;5.77;;;4.30;;
15633;SDS011;14654;48.898;8.308;2023-05-29T13:11:22;3.93;;;3.50;;
15633;SDS011;14654;48.898;8.308;2023-05-29T13:13:47;5.80;;;3.70;;
15633;SDS011;14654;48.898;8.308;2023-05-29T13:16:12;4.57;;;3.40;;
15633;SDS011;14654;48.898;8.308;2023-05-29T13:18:38;4.20;;;3.77;;
15633;SDS011;14654;48.898;8.308;2023-05-29T13:21:03;8.03;;;3.90;;
15633;SDS011;14654;48.898;8.308;2023-05-29T13:23:28;5.73;;;4.00;;
15633;SDS011;14654;48.898;8.308;2023-05-29T13:25:54;3.90;;;3.50;;
15633;SDS011;14654;48.898;8.308;2023-05-29T13:28:19;4.03;;;3.47;;
15633;SDS011;14654;48.898;8.308;2023-05-29T13:30:44;12.13;;;4.03;;
15633;SDS011;14654;48.898;8.308;2023-05-29T13:33:10;5.50;;;4.00;;
15633;SDS011;14654;48.898;8.308;2023-05-29T13:35:35;5.17;;;3.43;;
15633;SDS011;14654;48.898;8.308;2023-05-29T13:38:01;4.03;;;3.40;;
15633;SDS011;14654;48.898;8.308;2023-05-29T13:40:26;4.43;;;3.60;;
15633;SDS011;14654;48.898;8.308;2023-05-29T13:42:51;4.50;;;3.70;;
15633;SDS011;14654;48.898;8.308;2023-05-29T13:45:17;5.13;;;3.53;;
15633;SDS011;14654;48.898;8.308;2023-05-29T13:47:42;3.83;;;3.43;;
15633;SDS011;14654;48.898;8.308;2023-05-29T13:50:07;4.47;;;3.50;;
15633;SDS011;14654;48.898;8.308;2023-05-29T13:52:33;7.17;;;3.83;;
15633;SDS011;14654;48.898;8.308;2023-05-29T13:54:58;4.40;;;3.20;;
15633;SDS011;14654;48.898;8.308;2023-05-29T13:57:29;4.07;;;3.33;;
15633;SDS011;14654;48.898;8.308;2023-05-29T13:59:56;6.03;;;3.13;;
15633;SDS011;14654;48.898;8.308;2023-05-29T14:02:21;4.33;;;3.40;;
15633;SDS011;14654;48.898;8.308;2023-05-29T14:04:47;5.40;;;3.37;;
15633;SDS011;14654;48.898;8.308;2023-05-29T14:07:13;4.43;;;3.20;;
15633;SDS011;14654;48.898;8.308;2023-05-29T14:09:38;5.47;;;3.40;;
15633;SDS011;14654;48.898;8.308;2023-05-29T14:12:03;4.80;;;3.40;;
15633;SDS011;14654;48.898;8.308;2023-05-29T14:14:30;6.50;;;2.87;;
15633;SDS011;14654;48.898;8.308;2023-05-29T14:16:55;4.40;;;3.50;;
15633;SDS011;14654;48.898;8.308;2023-05-29T14:19:21;5.03;;;3.20;;
15633;SDS011;14654;48.898;8.308;2023-05-29T14:21:50;6.70;;;3.30;;
15633;SDS011;14654;48.898;8.308;2023-05-29T14:24:16;3.80;;;3.47;;
15633;SDS011;14654;48.898;8.308;2023-05-29T14:26:42;3.70;;;3.40;;
15633;SDS011;14654;48.898;8.308;2023-05-29T14:29:11;5.50;;;3.50;;
15633;SDS011;14654;48.898;8.308;2023-05-29T14:31:37;3.40;;;3.10;;
15633;SDS011;14654;48.898;8.308;2023-05-29T14:34:02;4.53;;;3.17;;
15633;SDS011;14654;48.898;8.308;2023-05-29T14:36:27;3.17;;;2.97;;
15633;SDS011;14654;48.898;8.308;2023-05-29T14:38:53;3.63;;;3.23;;
15633;SDS011;14654;48.898;8.308;2023-05-29T14:41:18;5.10;;;3.13;;
15633;SDS011;14654;48.898;8.308;2023-05-29T14:43:43;8.77;;;3.63;;
15633;SDS011;14654;48.898;8.308;2023-05-29T14:46:09;6.87;;;3.30;;
15633;SDS011;14654;48.898;8.308;2023-05-29T14:48:34;3.60;;;3.10;;
15633;SDS011;14654;48.898;8.308;2023-05-29T14:51:00;5.87;;;3.23;;
15633;SDS011;14654;48.898;8.308;2023-05-29T14:53:25;4.17;;;3.10;;
15633;SDS011;14654;48.898;8.308;2023-05-29T14:55:51;4.73;;;3.30;;
15633;SDS011;14654;48.898;8.308;2023-05-29T14:58:16;3.00;;;2.67;;
15633;SDS011;14654;48.898;8.308;2023-05-29T15:00:42;4.73;;;3.10;;
15633;SDS011;14654;48.898;8.308;2023-05-29T15:03:07;3.03;;;2.60;;
15633;SDS011;14654;48.898;8.308;2023-05-29T15:05:32;3.17;;;2.83;;
15633;SDS011;14654;48.898;8.308;2023-05-29T15:07:57;4.10;;;3.40;;
15633;SDS011;14654;48.898;8.308;2023-05-29T15:10:24;4.20;;;2.97;;
15633;SDS011;14654;48.898;8.308;2023-05-29T15:12:51;4.20;;;3.00;;